Time;durP1;ratioP1;P1;durP2;ratioP2;P2;SDS_P1;SDS_P2;PMS_P1;PMS_P2;Temp;Humidity;BMP_temperature;BMP_pressure;BME280_temperature;BME280_humidity;BME280_pressure;Samples;Min_cycle;Max_cycle;Signal;HPM_P1;HPM_P2
2022/08/18 00:01:53;;;;;;;8.80;8.00;;;20.80;99.90;;;;;;5035936;28;20172;-68
2022/08/18 00:04:18;;;;;;;7.27;6.77;;;20.80;99.90;;;;;;5036061;28;20499;-68
2022/08/18 00:06:44;;;;;;;8.50;7.77;;;20.90;99.90;;;;;;5036034;28;20906;-68
2022/08/18 00:09:11;;;;;;;7.17;6.57;;;20.90;99.90;;;;;;5036225;28;20176;-68
2022/08/18 00:11:42;;;;;;;7.53;6.83;;;20.90;99.90;;;;;;5034815;28;20179;-67
2022/08/18 00:14:14;;;;;;;7.57;7.07;;;20.60;99.90;;;;;;5035568;28;20873;-68
2022/08/18 00:16:40;;;;;;;7.57;6.87;;;20.60;99.90;;;;;;5035612;28;20449;-68
2022/08/18 00:19:06;;;;;;;8.00;7.30;;;20.60;99.90;;;;;;5035725;28;20410;-68
2022/08/18 00:21:32;;;;;;;7.07;6.37;;;20.80;99.90;;;;;;5035811;28;20194;-68
2022/08/18 00:23:58;;;;;;;7.23;6.60;;;20.90;99.90;;;;;;5035538;28;20187;-69
2022/08/18 00:26:24;;;;;;;6.40;5.90;;;21.00;99.90;;;;;;5035531;28;20412;-69
2022/08/18 00:28:49;;;;;;;7.50;6.90;;;21.10;99.90;;;;;;5028156;28;20263;-68
2022/08/18 00:31:15;;;;;;;7.80;6.73;;;21.30;99.90;;;;;;5015705;28;20234;-68
2022/08/18 00:33:42;;;;;;;6.60;6.00;;;21.30;99.90;;;;;;5015588;28;20192;-67
2022/08/18 00:36:08;;;;;;;6.77;6.17;;;21.20;99.90;;;;;;5015612;28;20203;-68
2022/08/18 00:38:34;;;;;;;7.77;6.97;;;21.40;99.90;;;;;;5015545;28;20442;-68
2022/08/18 00:41:00;;;;;;;7.37;6.60;;;21.30;99.90;;;;;;5014213;28;20931;-68
2022/08/18 00:43:45;;;;;;;6.50;6.00;;;21.40;99.90;;;;;;5032623;28;20227;-68
2022/08/18 00:46:15;;;;;;;7.10;6.50;;;21.50;99.90;;;;;;5035169;28;21015;-68
2022/08/18 00:48:41;;;;;;;7.67;6.93;;;21.60;99.90;;;;;;5035257;28;20401;-68
2022/08/18 00:51:14;;;;;;;7.13;6.43;;;21.70;99.90;;;;;;5035597;28;20485;-68
2022/08/18 00:53:49;;;;;;;6.53;5.93;;;21.70;99.90;;;;;;5035110;28;20199;-68
2022/08/18 00:56:29;;;;;;;7.40;6.90;;;21.70;99.90;;;;;;5035534;28;20507;-68
2022/08/18 00:59:05;;;;;;;6.23;5.73;;;21.70;99.90;;;;;;5034674;28;20396;-69
2022/08/18 01:01:32;;;;;;;7.13;6.57;;;21.80;99.90;;;;;;5035088;28;20388;-68
2022/08/18 01:04:23;;;;;;;6.83;6.30;;;21.70;99.90;;;;;;5023230;28;20458;-70
2022/08/18 01:06:59;;;;;;;7.10;6.60;;;21.80;99.90;;;;;;5015034;28;21002;-69
2022/08/18 01:09:25;;;;;;;6.63;6.13;;;21.80;99.90;;;;;;5015295;28;20422;-68
2022/08/18 01:11:51;;;;;;;6.73;6.23;;;21.80;99.90;;;;;;5018841;28;20425;-69
2022/08/18 01:14:17;;;;;;;6.90;6.40;;;21.70;99.90;;;;;;5034448;28;20794;-68
2022/08/18 01:22:34;;;;;;;7.13;6.53;;;21.00;99.90;;;;;;5034937;28;20482;-69
2022/08/18 01:27:45;;;;;;;7.13;6.53;;;20.80;99.90;;;;;;5034422;28;20504;-69
2022/08/18 01:30:16;;;;;;;7.33;6.73;;;20.60;99.90;;;;;;5033813;28;20400;-69
2022/08/18 01:32:44;;;;;;;7.07;6.57;;;20.60;99.90;;;;;;5034323;28;20394;-69
2022/08/18 01:35:12;;;;;;;7.33;6.73;;;20.70;99.90;;;;;;5034139;28;20871;-68
2022/08/18 01:37:37;;;;;;;7.37;6.77;;;20.70;99.90;;;;;;5034423;28;20433;-69
2022/08/18 01:40:06;;;;;;;6.63;6.00;;;20.60;99.90;;;;;;5034127;28;20406;-69
2022/08/18 01:42:32;;;;;;;7.07;6.50;;;20.80;99.90;;;;;;5033872;28;20171;-69
2022/08/18 01:44:58;;;;;;;6.97;6.40;;;20.80;99.90;;;;;;5033929;28;20938;-69
2022/08/18 01:47:23;;;;;;;6.90;6.30;;;20.80;99.90;;;;;;5034008;28;20398;-69
2022/08/18 01:49:49;;;;;;;7.23;6.63;;;20.70;99.90;;;;;;5034294;28;20543;-69
2022/08/18 01:52:19;;;;;;;7.43;6.83;;;20.50;99.90;;;;;;5034067;28;20239;-68
2022/08/18 01:54:47;;;;;;;7.30;6.70;;;20.30;99.90;;;;;;5032476;28;20187;-68
2022/08/18 01:57:14;;;;;;;8.20;7.33;;;20.10;99.90;;;;;;5032760;28;20962;-70
2022/08/18 01:59:41;;;;;;;8.23;7.53;;;20.10;99.90;;;;;;5033987;28;20820;-69
2022/08/18 02:02:08;;;;;;;7.73;6.97;;;20.10;99.90;;;;;;5034107;28;20398;-69
2022/08/18 02:04:35;;;;;;;7.77;7.07;;;20.20;99.90;;;;;;5033639;28;20494;-69
2022/08/18 02:07:01;;;;;;;8.17;7.43;;;20.30;99.90;;;;;;5034068;28;20402;-69
2022/08/18 02:09:28;;;;;;;7.90;7.10;;;20.40;99.90;;;;;;5032566;28;20504;-69
2022/08/18 02:11:55;;;;;;;7.60;7.00;;;20.30;99.90;;;;;;5031308;28;20418;-68
2022/08/18 02:14:21;;;;;;;7.60;7.00;;;20.50;99.90;;;;;;5033468;28;20426;-69
2022/08/18 02:16:46;;;;;;;7.00;6.30;;;20.50;99.90;;;;;;5033876;28;20449;-69
2022/08/18 02:19:13;;;;;;;7.93;6.13;;;20.40;99.90;;;;;;5033764;28;20395;-69
2022/08/18 02:21:39;;;;;;;8.03;7.33;;;20.40;99.90;;;;;;5033672;28;20245;-69
2022/08/18 02:24:04;;;;;;;7.27;6.77;;;20.50;99.90;;;;;;5018612;28;20923;-69
2022/08/18 02:26:30;;;;;;;6.90;6.40;;;20.50;99.90;;;;;;5013646;28;20173;-68
2022/08/18 02:28:56;;;;;;;6.47;5.90;;;20.50;99.90;;;;;;5013205;28;20179;-69
2022/08/18 02:31:23;;;;;;;6.47;5.87;;;20.50;99.90;;;;;;5013969;28;20217;-69
2022/08/18 02:33:50;;;;;;;6.67;6.17;;;20.50;99.90;;;;;;5013757;28;20195;-69
2022/08/18 02:36:16;;;;;;;7.10;6.57;;;20.40;99.90;;;;;;5012641;28;20545;-68
2022/08/18 02:38:42;;;;;;;7.07;6.47;;;20.60;99.90;;;;;;5013562;28;20890;-69
2022/08/18 02:41:10;;;;;;;7.80;7.20;;;20.60;99.90;;;;;;5013385;28;20661;-69
2022/08/18 02:43:37;;;;;;;6.97;6.37;;;20.40;99.90;;;;;;5028836;28;20962;-69
2022/08/18 02:46:04;;;;;;;5.97;5.57;;;20.50;99.90;;;;;;5031849;28;20406;-68
2022/08/18 02:50:59;;;;;;;7.20;6.23;;;20.80;99.90;;;;;;5033138;28;20962;-68
2022/08/18 02:53:26;;;;;;;7.10;6.40;;;20.70;99.90;;;;;;5032343;28;20270;-69
2022/08/18 02:55:51;;;;;;;7.20;6.60;;;20.70;99.90;;;;;;5032988;28;20444;-69
2022/08/18 02:58:19;;;;;;;7.67;7.07;;;20.80;99.90;;;;;;5032568;28;20977;-68
2022/08/18 03:00:45;;;;;;;6.73;6.23;;;20.80;99.90;;;;;;5031755;28;20167;-69
2022/08/18 03:03:12;;;;;;;6.60;6.00;;;20.90;99.90;;;;;;5032950;28;20406;-69
2022/08/18 03:05:38;;;;;;;8.63;6.57;;;21.00;99.90;;;;;;5033247;28;20382;-68
2022/08/18 03:08:03;;;;;;;7.47;6.77;;;21.10;99.90;;;;;;5032996;28;20397;-69
2022/08/18 03:10:29;;;;;;;7.20;6.70;;;21.00;99.90;;;;;;5031576;28;20421;-68
2022/08/18 03:12:54;;;;;;;6.77;6.27;;;21.00;99.90;;;;;;5031253;28;20167;-69
2022/08/18 03:15:20;;;;;;;7.30;6.70;;;21.10;99.90;;;;;;5033036;28;20261;-69
2022/08/18 03:17:46;;;;;;;7.10;6.50;;;21.10;99.90;;;;;;5032995;28;20164;-68
2022/08/18 03:20:12;;;;;;;5.73;5.33;;;21.00;99.90;;;;;;5033125;28;20572;-68
2022/08/18 03:22:37;;;;;;;6.77;6.17;;;21.00;99.90;;;;;;5032854;28;20590;-68
2022/08/18 03:25:04;;;;;;;7.27;6.67;;;21.00;99.90;;;;;;5031436;28;20488;-69
2022/08/18 03:27:30;;;;;;;6.97;6.47;;;20.90;99.90;;;;;;5032247;28;20164;-69
2022/08/18 03:29:56;;;;;;;6.80;6.30;;;20.90;99.90;;;;;;5033139;28;20953;-69
2022/08/18 03:32:21;;;;;;;7.47;6.87;;;20.60;99.90;;;;;;5032759;28;20538;-69
2022/08/18 03:34:47;;;;;;;7.60;7.00;;;20.50;99.90;;;;;;5033141;28;20495;-69
2022/08/18 03:37:14;;;;;;;6.70;6.20;;;20.50;99.90;;;;;;5032602;28;20194;-69
2022/08/18 03:39:40;;;;;;;7.63;6.93;;;20.50;99.90;;;;;;5032693;28;20167;-69
2022/08/18 03:42:06;;;;;;;7.83;7.23;;;20.40;99.90;;;;;;5032770;28;20894;-68
2022/08/18 03:44:35;;;;;;;7.27;6.57;;;20.40;99.90;;;;;;5032079;28;20180;-69
2022/08/18 03:47:02;;;;;;;6.50;6.00;;;20.40;99.90;;;;;;5032856;28;20476;-69
2022/08/18 03:49:28;;;;;;;7.43;6.60;;;20.30;99.90;;;;;;5032647;28;20980;-69
2022/08/18 03:51:54;;;;;;;7.90;7.30;;;20.30;99.90;;;;;;5032642;28;20410;-68
2022/08/18 03:54:20;;;;;;;7.47;6.77;;;20.30;99.90;;;;;;5035130;28;20505;-69
2022/08/18 03:56:48;;;;;;;8.13;7.43;;;20.20;99.90;;;;;;5024885;28;20235;-68
2022/08/18 03:59:22;;;;;;;7.60;6.90;;;20.00;99.90;;;;;;5014687;28;20672;-69
2022/08/18 04:01:50;;;;;;;7.63;6.93;;;20.10;99.90;;;;;;5016799;28;20752;-69
2022/08/18 04:04:19;;;;;;;7.17;6.57;;;20.20;99.90;;;;;;5016354;28;20439;-68
2022/08/18 04:07:06;;;;;;;6.93;6.40;;;20.30;99.90;;;;;;5016766;28;20411;-69
2022/08/18 04:09:33;;;;;;;7.43;6.80;;;20.30;99.90;;;;;;5016437;28;20410;-68
2022/08/18 04:12:10;;;;;;;8.07;7.47;;;20.20;99.90;;;;;;5017385;28;20411;-70
2022/08/18 04:14:37;;;;;;;8.30;7.60;;;20.10;99.90;;;;;;4996028;28;20419;-69
2022/08/18 04:17:04;;;;;;;7.93;7.20;;;19.90;99.90;;;;;;5014464;28;20592;-69
2022/08/18 04:19:32;;;;;;;7.47;6.90;;;20.00;99.90;;;;;;5016168;28;20414;-68
2022/08/18 04:21:57;;;;;;;8.10;7.40;;;20.20;99.90;;;;;;5016248;28;20402;-68
2022/08/18 04:24:25;;;;;;;7.90;7.20;;;20.30;99.90;;;;;;5015641;28;20974;-68
2022/08/18 04:26:51;;;;;;;7.70;7.10;;;20.40;99.90;;;;;;5009226;28;20712;-69
2022/08/18 04:29:19;;;;;;;7.23;6.53;;;20.40;99.90;;;;;;5015309;28;20454;-69
2022/08/18 04:31:46;;;;;;;7.70;7.10;;;20.40;99.90;;;;;;5014397;28;20174;-68
2022/08/18 04:34:12;;;;;;;7.77;7.07;;;20.40;99.90;;;;;;5015528;28;20479;-68
2022/08/18 04:36:38;;;;;;;8.30;7.70;;;20.30;99.90;;;;;;5015496;28;20447;-68
2022/08/18 04:39:06;;;;;;;8.73;8.03;;;20.20;99.90;;;;;;5015756;28;20978;-68
2022/08/18 04:41:32;;;;;;;7.87;7.07;;;20.10;99.90;;;;;;5015837;28;20458;-69
2022/08/18 04:44:01;;;;;;;7.83;7.13;;;20.10;99.90;;;;;;5031267;28;20844;-68
2022/08/18 04:46:28;;;;;;;7.37;6.80;;;20.30;99.90;;;;;;5035482;28;20168;-68
2022/08/18 04:48:57;;;;;;;7.77;7.17;;;20.40;99.90;;;;;;5035285;28;20451;-68
2022/08/18 04:51:27;;;;;;;6.90;6.30;;;20.40;99.90;;;;;;5035175;28;20463;-68
2022/08/18 04:53:52;;;;;;;8.13;7.53;;;20.40;99.90;;;;;;5035099;28;20505;-68
2022/08/18 04:56:26;;;;;;;7.53;6.93;;;20.50;99.90;;;;;;5034865;28;20442;-68
2022/08/18 04:58:59;;;;;;;7.53;6.93;;;20.50;99.90;;;;;;5034811;28;20231;-68
2022/08/18 05:01:30;;;;;;;6.60;6.10;;;20.70;99.90;;;;;;5035160;28;20484;-68
2022/08/18 05:03:57;;;;;;;7.40;6.90;;;20.70;99.90;;;;;;5034608;28;20454;-68
2022/08/18 05:06:25;;;;;;;7.80;7.20;;;20.80;99.90;;;;;;5034280;28;20407;-68
2022/08/18 05:08:58;;;;;;;7.23;6.63;;;20.90;99.90;;;;;;5034733;28;20505;-68
2022/08/18 05:11:27;;;;;;;7.00;6.47;;;20.80;99.90;;;;;;5034612;28;20436;-68
2022/08/18 05:13:56;;;;;;;7.60;6.93;;;20.90;99.90;;;;;;5032575;28;20461;-68
2022/08/18 05:16:21;;;;;;;7.53;6.80;;;20.90;99.90;;;;;;5034247;28;20449;-68
2022/08/18 05:18:47;;;;;;;7.77;7.17;;;21.00;99.90;;;;;;5034497;28;20406;-68
2022/08/18 05:21:14;;;;;;;7.00;6.40;;;21.10;99.90;;;;;;5034355;28;20167;-68
2022/08/18 05:23:44;;;;;;;7.50;6.90;;;21.10;99.90;;;;;;5033235;28;20587;-68
2022/08/18 05:26:12;;;;;;;6.97;6.47;;;21.00;99.90;;;;;;5034682;28;20394;-68
2022/08/18 05:28:38;;;;;;;7.47;6.77;;;21.00;99.90;;;;;;5034234;28;20402;-68
2022/08/18 05:31:13;;;;;;;9.87;7.40;;;21.20;99.90;;;;;;5034567;28;20904;-68
2022/08/18 05:33:39;;;;;;;7.07;6.40;;;21.20;99.90;;;;;;5034324;28;20210;-69
2022/08/18 05:36:24;;;;;;;8.57;7.87;;;21.40;99.90;;;;;;5057840;23;20485;-70
2022/08/18 05:39:16;;;;;;;6.83;6.30;;;21.70;99.90;;;;;;5034763;28;20213;-71
2022/08/18 05:41:47;;;;;;;7.43;6.93;;;21.70;99.90;;;;;;5034604;28;20379;-70
2022/08/18 05:44:18;;;;;;;7.60;6.90;;;21.70;99.90;;;;;;5034464;28;20386;-71
2022/08/18 05:46:55;;;;;;;7.37;6.67;;;21.80;99.90;;;;;;5034658;28;20751;-71
2022/08/18 05:49:24;;;;;;;9.57;7.90;;;21.80;99.90;;;;;;5034715;28;20413;-71
2022/08/18 05:51:53;;;;;;;7.80;7.10;;;21.80;99.90;;;;;;5032837;28;20463;-71
2022/08/18 05:57:11;;;;;;;8.47;7.47;;;22.10;99.90;;;;;;5033821;28;20465;-72
2022/08/18 05:59:40;;;;;;;7.07;6.50;;;21.90;99.90;;;;;;5033942;28;20918;-71
2022/08/18 06:02:34;;;;;;;7.60;7.00;;;22.10;99.90;;;;;;5033812;28;20501;-71
2022/08/18 06:05:10;;;;;;;7.50;6.70;;;22.20;99.90;;;;;;5033915;28;20382;-71
2022/08/18 06:07:48;;;;;;;7.17;6.47;;;22.40;99.90;;;;;;5033534;28;21013;-72
2022/08/18 06:10:15;;;;;;;7.70;7.10;;;22.50;99.90;;;;;;5020692;28;20480;-70
2022/08/18 06:12:57;;;;;;;8.30;7.60;;;22.60;99.90;;;;;;5013688;28;20399;-71
2022/08/18 06:15:42;;;;;;;8.67;7.87;;;22.70;99.90;;;;;;5013960;28;20974;-72
2022/08/18 06:18:34;;;;;;;8.40;7.70;;;22.70;99.90;;;;;;5010290;28;20444;-67
2022/08/18 06:20:59;;;;;;;8.30;7.70;;;22.50;99.90;;;;;;5004575;28;20801;-68
2022/08/18 06:23:32;;;;;;;7.00;6.50;;;22.60;99.90;;;;;;5004538;28;20461;-68
2022/08/18 06:26:15;;;;;;;7.50;6.90;;;22.80;99.90;;;;;;5004722;28;20262;-70
2022/08/18 06:28:52;;;;;;;9.40;8.43;;;22.80;99.90;;;;;;5003197;28;20422;-71
2022/08/18 06:31:30;;;;;;;7.93;7.33;;;22.80;99.90;;;;;;5004679;28;20410;-72
2022/08/18 06:34:15;;;;;;;9.43;8.53;;;22.70;99.90;;;;;;5004455;28;20406;-70
2022/08/18 06:37:07;;;;;;;6.83;6.20;;;22.70;99.90;;;;;;5003906;28;20462;-71
2022/08/18 06:39:49;;;;;;;9.60;7.70;;;22.80;99.90;;;;;;5004158;28;20402;-69
2022/08/18 06:42:25;;;;;;;8.03;7.30;;;22.70;99.90;;;;;;5004344;28;20421;-70
2022/08/18 06:44:56;;;;;;;7.10;6.60;;;22.60;99.90;;;;;;5004442;28;20403;-69
2022/08/18 06:47:58;;;;;;;11.93;7.20;;;22.60;99.90;;;;;;5004610;28;20634;-69
2022/08/18 06:50:47;;;;;;;7.93;7.23;;;22.80;99.90;;;;;;5004540;28;20642;-71
2022/08/18 06:53:13;;;;;;;8.10;7.30;;;23.00;99.90;;;;;;5004143;28;20411;-68
2022/08/18 06:55:44;;;;;;;9.07;8.27;;;23.30;99.90;;;;;;5007956;28;20454;-71
2022/08/18 06:58:16;;;;;;;9.13;7.90;;;23.40;99.90;;;;;;5013325;28;20415;-70
2022/08/18 07:00:54;;;;;;;8.00;7.40;;;23.40;99.90;;;;;;5013557;28;20478;-71
2022/08/18 07:03:34;;;;;;;8.63;7.87;;;23.20;99.90;;;;;;5013080;28;20423;-71
2022/08/18 07:06:22;;;;;;;9.00;8.20;;;23.40;99.90;;;;;;5014538;28;20395;-69
2022/08/18 07:08:50;;;;;;;8.60;7.80;;;23.50;99.90;;;;;;5034253;28;20402;-72
2022/08/18 07:11:29;;;;;;;8.53;7.83;;;23.50;99.90;;;;;;5033789;28;20533;-71
2022/08/18 07:13:58;;;;;;;8.27;7.57;;;23.70;99.90;;;;;;5033538;28;20390;-70
2022/08/18 07:16:32;;;;;;;8.73;8.03;;;23.90;99.90;;;;;;5033269;28;20832;-70
2022/08/18 07:19:15;;;;;;;9.13;8.23;;;23.90;99.90;;;;;;5016841;28;20422;-71
2022/08/18 07:21:42;;;;;;;9.43;8.63;;;23.80;99.90;;;;;;5013641;28;20520;-71
2022/08/18 07:24:20;;;;;;;8.40;7.60;;;23.70;99.90;;;;;;5014245;28;20406;-69
2022/08/18 07:27:01;;;;;;;9.03;8.17;;;23.60;99.90;;;;;;5013581;28;20438;-70
2022/08/18 07:29:29;;;;;;;8.20;7.40;;;23.60;99.90;;;;;;5015958;28;20413;-72
2022/08/18 07:31:59;;;;;;;10.17;7.10;;;23.60;99.90;;;;;;5017211;28;20406;-72
2022/08/18 07:34:37;;;;;;;11.87;9.90;;;23.50;99.90;;;;;;5017092;28;20425;-71
2022/08/18 07:37:22;;;;;;;7.57;7.03;;;23.50;99.90;;;;;;5026067;28;20838;-71
2022/08/18 07:40:01;;;;;;;7.93;7.17;;;23.20;99.90;;;;;;5036865;28;20481;-70
2022/08/18 07:42:57;;;;;;;7.50;6.80;;;23.40;99.90;;;;;;5035836;28;20409;-70
2022/08/18 07:45:34;;;;;;;8.00;7.30;;;23.50;99.90;;;;;;5035364;28;20421;-70
2022/08/18 07:48:14;;;;;;;7.73;7.03;;;23.20;99.90;;;;;;5036977;28;20867;-72
2022/08/18 07:50:55;;;;;;;6.83;6.33;;;23.10;99.90;;;;;;5037128;28;20921;-71
2022/08/18 07:54:02;;;;;;;8.00;7.20;;;23.00;99.90;;;;;;5036556;28;20382;-69
2022/08/18 07:56:51;;;;;;;7.93;7.13;;;23.10;99.90;;;;;;5028259;28;20472;-70
2022/08/18 07:59:31;;;;;;;8.23;7.50;;;23.30;99.90;;;;;;5036125;28;20387;-71
2022/08/18 08:02:18;;;;;;;7.43;6.80;;;23.40;99.90;;;;;;5036136;28;20394;-71
2022/08/18 08:04:52;;;;;;;7.73;7.10;;;23.20;99.90;;;;;;5036295;28;20860;-70
2022/08/18 08:07:31;;;;;;;7.63;7.00;;;23.40;99.90;;;;;;5035736;28;20422;-71
2022/08/18 08:10:04;;;;;;;7.87;7.17;;;23.60;99.90;;;;;;5036542;28;20390;-69
2022/08/18 08:13:21;;;;;;;7.47;6.87;;;23.60;99.90;;;;;;5036604;28;20875;-71
2022/08/18 08:16:13;;;;;;;7.57;6.87;;;23.30;99.90;;;;;;4975257;28;20453;-70
2022/08/18 08:18:48;;;;;;;7.60;6.90;;;23.10;99.90;;;;;;5025674;28;20891;-72
2022/08/18 08:21:18;;;;;;;7.77;6.63;;;22.90;99.90;;;;;;5016575;28;20383;-71
2022/08/18 08:23:54;;;;;;;6.97;6.47;;;23.20;99.90;;;;;;5016215;28;20438;-72
2022/08/18 08:26:33;;;;;;;7.00;6.40;;;23.30;99.90;;;;;;5016137;28;20423;-70
2022/08/18 08:29:43;;;;;;;7.43;6.70;;;23.10;99.90;;;;;;5014731;28;20843;-70
2022/08/18 08:32:35;;;;;;;7.20;6.60;;;23.20;99.90;;;;;;5015197;28;20812;-71
2022/08/18 08:35:11;;;;;;;7.60;7.00;;;23.20;99.90;;;;;;5015694;28;20781;-71
2022/08/18 08:37:53;;;;;;;8.50;6.90;;;23.20;99.90;;;;;;5029368;28;20460;-71
2022/08/18 08:40:39;;;;;;;8.10;7.00;;;23.60;99.90;;;;;;5035507;28;20410;-71
2022/08/18 08:43:15;;;;;;;8.00;7.30;;;23.80;99.90;;;;;;5035446;28;20401;-69
2022/08/18 08:45:47;;;;;;;7.93;7.23;;;23.90;99.90;;;;;;5035420;28;20838;-71
2022/08/18 08:48:19;;;;;;;8.23;7.43;;;23.70;99.90;;;;;;5035760;28;20402;-72
2022/08/18 08:50:52;;;;;;;8.73;8.00;;;23.90;99.90;;;;;;5035219;28;20395;-71
2022/08/18 08:53:26;;;;;;;8.63;7.87;;;23.60;99.90;;;;;;5034986;28;20386;-71
2022/08/18 08:56:05;;;;;;;8.00;7.33;;;23.50;99.90;;;;;;5035118;28;20856;-71
2022/08/18 08:58:48;;;;;;;8.53;7.20;;;23.30;99.90;;;;;;5035185;28;20399;-71
2022/08/18 09:01:33;;;;;;;8.97;8.07;;;23.60;99.90;;;;;;5035346;28;20398;-70
2022/08/18 09:04:15;;;;;;;9.27;8.47;;;24.20;99.90;;;;;;5035323;28;20874;-69
2022/08/18 09:07:07;;;;;;;8.53;7.83;;;24.30;99.90;;;;;;5034912;28;20437;-71
2022/08/18 09:09:36;;;;;;;8.00;7.40;;;24.20;99.90;;;;;;5036301;28;20422;-71
2022/08/18 09:12:02;;;;;;;11.17;7.70;;;24.10;99.90;;;;;;5034957;28;20485;-72
2022/08/18 09:14:57;;;;;;;8.67;7.97;;;24.00;99.90;;;;;;5032505;28;20521;-71
2022/08/18 09:17:49;;;;;;;7.97;7.27;;;24.20;99.90;;;;;;5034773;28;20210;-72
2022/08/18 09:20:25;;;;;;;8.70;8.00;;;24.30;99.90;;;;;;5034611;28;20402;-71
2022/08/18 09:23:09;;;;;;;9.83;8.73;;;24.70;99.90;;;;;;5034682;28;20374;-71
2022/08/18 09:25:38;;;;;;;8.43;7.73;;;24.30;99.90;;;;;;5035032;28;20455;-72
2022/08/18 09:28:29;;;;;;;7.90;7.30;;;23.90;99.90;;;;;;5034822;28;20533;-70
2022/08/18 09:31:00;;;;;;;8.80;8.10;;;23.70;99.90;;;;;;5005945;28;20425;-70
2022/08/18 09:33:44;;;;;;;8.70;8.00;;;23.50;99.90;;;;;;5034576;28;20401;-72
2022/08/18 09:36:15;;;;;;;9.10;8.17;;;23.70;99.90;;;;;;5034784;28;20465;-71
2022/08/18 09:42:13;;;;;;;10.03;8.37;;;24.60;99.90;;;;;;5036216;28;20389;-72
2022/08/18 09:44:45;;;;;;;8.50;7.80;;;24.90;99.90;;;;;;5034050;28;20841;-71
2022/08/18 09:47:32;;;;;;;9.20;8.33;;;24.90;99.90;;;;;;5034343;28;20434;-70
2022/08/18 09:50:04;;;;;;;9.50;8.23;;;24.90;99.90;;;;;;5034246;28;20899;-71
2022/08/18 09:52:32;;;;;;;8.63;7.93;;;25.20;99.90;;;;;;5033374;28;20429;-71
2022/08/18 09:54:58;;;;;;;10.60;9.70;;;25.20;99.90;;;;;;5034042;28;20484;-72
2022/08/18 09:57:35;;;;;;;8.63;7.93;;;25.10;99.90;;;;;;5033908;28;20453;-72
2022/08/18 10:00:04;;;;;;;12.63;10.43;;;25.20;99.90;;;;;;5033698;28;20160;-71
2022/08/18 10:02:32;;;;;;;11.00;10.07;;;25.00;99.90;;;;;;5034235;28;20397;-71
2022/08/18 10:05:16;;;;;;;11.10;10.10;;;25.20;99.90;;;;;;5034237;28;20774;-71
2022/08/18 10:07:43;;;;;;;10.67;9.57;;;25.30;99.90;;;;;;5033946;28;20779;-71
2022/08/18 10:10:53;;;;;;;10.10;9.10;;;25.30;99.90;;;;;;5033814;28;20833;-70
2022/08/18 10:13:41;;;;;;;10.57;9.67;;;25.90;99.90;;;;;;4936497;29;20465;-70
2022/08/18 10:16:09;;;;;;;8.87;8.00;;;26.20;99.90;;;;;;5018978;28;20450;-75
2022/08/18 10:18:53;;;;;;;10.73;9.83;;;25.80;99.90;;;;;;5013945;28;20430;-71
2022/08/18 10:21:28;;;;;;;9.67;8.70;;;25.30;99.90;;;;;;5012834;28;20396;-71
2022/08/18 10:24:07;;;;;;;9.30;8.40;;;25.70;99.90;;;;;;5013701;28;20391;-71
2022/08/18 10:26:41;;;;;;;9.63;8.80;;;26.10;99.90;;;;;;5012407;28;20435;-71
2022/08/18 10:29:30;;;;;;;11.73;10.60;;;26.40;99.90;;;;;;5013564;28;20395;-71
2022/08/18 10:31:56;;;;;;;10.73;9.70;;;26.00;99.90;;;;;;5012388;28;20419;-72
2022/08/18 10:34:41;;;;;;;12.40;11.23;;;26.10;99.90;;;;;;5013553;28;20414;-70
2022/08/18 10:37:26;;;;;;;10.50;9.40;;;26.10;99.90;;;;;;5013544;28;20208;-70
2022/08/18 10:39:54;;;;;;;11.07;10.07;;;26.00;99.90;;;;;;5013854;28;20387;-72
2022/08/18 10:42:28;;;;;;;11.37;10.47;;;25.80;99.90;;;;;;5013253;28;20902;-71
2022/08/18 10:45:18;;;;;;;11.17;10.07;;;25.60;99.90;;;;;;5027864;28;20933;-71
2022/08/18 10:48:08;;;;;;;9.97;9.27;;;25.70;99.90;;;;;;5033311;28;20519;-73
2022/08/18 10:50:47;;;;;;;11.37;10.40;;;26.00;99.90;;;;;;5033404;28;20524;-70
2022/08/18 10:53:44;;;;;;;11.30;10.30;;;26.40;99.90;;;;;;5033183;28;20389;-70
2022/08/18 10:56:32;;;;;;;11.00;10.00;;;26.70;99.90;;;;;;5012144;28;20466;-71
2022/08/18 10:59:21;;;;;;;10.00;9.10;;;26.30;99.90;;;;;;5032811;28;20401;-71
2022/08/18 11:02:05;;;;;;;10.93;10.03;;;26.40;99.90;;;;;;5033176;28;20473;-70
2022/08/18 11:04:35;;;;;;;9.23;8.50;;;27.20;99.90;;;;;;5036384;28;20738;-70
2022/08/18 11:07:11;;;;;;;9.60;8.80;;;29.30;99.90;;;;;;5037003;28;20517;-70
2022/08/18 11:09:39;;;;;;;10.43;9.53;;;30.60;98.30;;;;;;5037716;28;20862;-71
2022/08/18 11:12:05;;;;;;;9.40;8.40;;;28.40;99.90;;;;;;5037337;28;20410;-71
2022/08/18 11:14:50;;;;;;;10.03;9.10;;;27.90;99.90;;;;;;5035437;28;20474;-69
2022/08/18 11:17:34;;;;;;;9.93;9.13;;;27.70;99.90;;;;;;5037407;28;20826;-70
2022/08/18 11:20:01;;;;;;;10.37;9.47;;;27.60;99.90;;;;;;5037262;28;20386;-71
2022/08/18 11:22:30;;;;;;;11.07;10.10;;;28.10;99.90;;;;;;5037047;28;20421;-71
2022/08/18 11:24:57;;;;;;;9.57;8.77;;;28.20;99.90;;;;;;5037003;28;20398;-71
2022/08/18 11:27:26;;;;;;;8.93;8.23;;;27.80;99.90;;;;;;5036760;28;20835;-70
2022/08/18 11:29:53;;;;;;;10.03;9.13;;;27.90;99.90;;;;;;5036313;28;20406;-71
2022/08/18 11:32:28;;;;;;;9.30;8.60;;;28.30;99.90;;;;;;5036789;28;20779;-71
2022/08/18 11:34:56;;;;;;;11.60;10.70;;;27.50;99.90;;;;;;5037076;28;20398;-71
2022/08/18 11:37:43;;;;;;;10.37;9.57;;;26.80;99.90;;;;;;5052621;22;21004;-67
2022/08/18 11:40:36;;;;;;;9.83;9.13;;;27.00;99.90;;;;;;5036965;28;20370;-68
2022/08/18 11:43:11;;;;;;;9.60;8.80;;;27.40;99.90;;;;;;5036676;28;20466;-68
2022/08/18 11:45:43;;;;;;;11.13;10.27;;;27.00;99.90;;;;;;5036425;28;20733;-68
2022/08/18 11:48:15;;;;;;;11.00;10.00;;;26.90;99.90;;;;;;5036540;28;20418;-68
2022/08/18 11:50:58;;;;;;;10.50;9.63;;;27.10;99.90;;;;;;5036324;28;20382;-67
2022/08/18 11:53:31;;;;;;;10.87;9.87;;;27.10;99.90;;;;;;5036210;28;20891;-68
2022/08/18 11:56:15;;;;;;;10.90;10.10;;;27.10;99.90;;;;;;5036434;28;20523;-66
2022/08/18 11:58:49;;;;;;;11.50;10.50;;;27.00;99.90;;;;;;5035955;28;20433;-68
2022/08/18 12:01:33;;;;;;;10.67;9.77;;;27.70;99.90;;;;;;5034905;28;20386;-68
2022/08/18 12:04:13;;;;;;;11.57;10.63;;;27.50;99.90;;;;;;5035940;28;20496;-68
2022/08/18 12:07:00;;;;;;;11.20;10.40;;;27.40;99.90;;;;;;5035798;28;20964;-69
2022/08/18 12:09:44;;;;;;;11.73;10.83;;;26.80;99.90;;;;;;5036237;28;20405;-69
2022/08/18 12:12:23;;;;;;;12.27;10.33;;;26.80;99.90;;;;;;5035756;28;20878;-70
2022/08/18 12:15:12;;;;;;;11.93;11.03;;;27.10;99.90;;;;;;5037576;28;20390;-68
2022/08/18 12:17:39;;;;;;;11.10;10.20;;;27.10;99.90;;;;;;5028976;28;20442;-67
2022/08/18 12:20:10;;;;;;;9.07;8.33;;;27.20;99.90;;;;;;5035618;28;20402;-69
2022/08/18 12:22:37;;;;;;;9.70;8.90;;;27.80;99.90;;;;;;5035290;28;20461;-69
2022/08/18 12:25:07;;;;;;;9.30;8.60;;;28.90;98.60;;;;;;5035343;28;20898;-67
2022/08/18 12:27:33;;;;;;;9.40;8.70;;;29.70;97.10;;;;;;5035464;28;20422;-68
2022/08/18 12:30:00;;;;;;;9.97;9.27;;;30.20;95.90;;;;;;5035280;28;20403;-68
2022/08/18 12:32:29;;;;;;;9.80;8.90;;;30.40;95.90;;;;;;5035656;28;20413;-68
2022/08/18 12:34:55;;;;;;;9.10;8.30;;;31.50;94.60;;;;;;5035579;28;20776;-67
2022/08/18 12:37:24;;;;;;;9.87;9.07;;;33.00;92.10;;;;;;5034802;28;20469;-67
2022/08/18 12:39:50;;;;;;;10.40;9.40;;;32.50;92.10;;;;;;5036354;28;20213;-67
2022/08/18 12:42:17;;;;;;;9.70;8.90;;;31.70;92.70;;;;;;5035549;28;20417;-67
2022/08/18 12:44:42;;;;;;;10.00;9.13;;;31.00;92.50;;;;;;5034943;28;20418;-67
2022/08/18 12:47:15;;;;;;;8.10;7.30;;;29.90;93.70;;;;;;5035389;28;20426;-68
2022/08/18 12:49:41;;;;;;;11.40;8.40;;;29.40;94.10;;;;;;5035432;28;20525;-68
2022/08/18 12:52:07;;;;;;;7.73;7.13;;;29.50;94.10;;;;;;5035315;28;20979;-68
2022/08/18 12:54:34;;;;;;;9.13;8.43;;;30.60;92.70;;;;;;5035270;28;20402;-68
2022/08/18 12:57:01;;;;;;;8.50;7.80;;;31.10;91.70;;;;;;5034698;28;20994;-67
2022/08/18 12:59:26;;;;;;;8.77;8.07;;;31.70;90.80;;;;;;5034944;28;20398;-68
2022/08/18 13:01:52;;;;;;;7.87;7.20;;;32.30;89.00;;;;;;5035125;28;20516;-70
2022/08/18 13:04:18;;;;;;;8.10;7.40;;;32.70;88.00;;;;;;5033992;28;20182;-67
2022/08/18 13:06:51;;;;;;;9.17;8.27;;;33.50;85.70;;;;;;5034491;28;20446;-68
2022/08/18 13:09:17;;;;;;;9.27;8.50;;;33.70;83.40;;;;;;5034803;28;20227;-68
2022/08/18 13:11:42;;;;;;;8.53;7.93;;;31.90;87.50;;;;;;5034648;28;20445;-68
2022/08/18 13:14:08;;;;;;;7.83;7.13;;;31.10;90.20;;;;;;5033837;28;20167;-71
2022/08/18 13:16:37;;;;;;;10.27;9.47;;;31.70;88.80;;;;;;5034510;28;20195;-67
2022/08/18 13:19:03;;;;;;;13.70;9.10;;;31.40;88.30;;;;;;5034563;28;20548;-68
2022/08/18 13:21:29;;;;;;;24.27;9.57;;;31.00;90.10;;;;;;5034490;28;20410;-68
2022/08/18 13:23:55;;;;;;;8.57;7.97;;;31.70;88.00;;;;;;5034472;28;20648;-69
2022/08/18 13:26:29;;;;;;;9.70;8.70;;;31.40;89.40;;;;;;5033355;28;20168;-68
2022/08/18 13:28:56;;;;;;;14.90;8.37;;;31.40;88.90;;;;;;5034699;28;20391;-68
2022/08/18 13:31:22;;;;;;;9.33;8.53;;;31.90;87.40;;;;;;5033794;28;20421;-68
2022/08/18 13:33:49;;;;;;;13.33;8.77;;;32.20;85.70;;;;;;5033190;28;20400;-69